createdAt,value
2018-12-27T00:02:26.121Z,102199.53
2018-12-27T00:04:57.342Z,102199.53
2018-12-27T00:07:28.345Z,102192.25
2018-12-27T00:09:59.252Z,102183.27
2018-12-27T00:12:30.137Z,102176.83
2018-12-27T00:15:01.107Z,102185.83
2018-12-27T00:17:32.020Z,102177.23
2018-12-27T00:20:02.970Z,102169.97
2018-12-27T00:22:33.878Z,102170.82
2018-12-27T00:25:05.008Z,102182.39
2018-12-27T00:27:35.998Z,102184.98
2018-12-27T00:30:07.094Z,102184.09
2018-12-27T00:32:38.187Z,102176.81
2018-12-27T00:35:09.322Z,102173.81
2018-12-27T00:37:40.394Z,102185.39
2018-12-27T00:40:11.570Z,102186.23
2018-12-27T00:42:42.699Z,102185.38
2018-12-27T00:45:13.864Z,102183.23
2018-12-27T00:47:45.628Z,102173.37
2018-12-27T00:50:16.760Z,102168.66
2018-12-27T00:52:47.916Z,102166.50
2018-12-27T00:55:19.072Z,102160.95
2018-12-27T00:57:50.150Z,102162.23
2018-12-27T01:00:21.277Z,102153.65
2018-12-27T01:02:52.363Z,102149.38
2018-12-27T01:05:23.504Z,102147.22
2018-12-27T01:07:54.660Z,102148.09
2018-12-27T01:10:25.763Z,102148.95
2018-12-27T01:12:56.900Z,102142.08
2018-12-27T01:15:27.993Z,102137.80
2018-12-27T01:17:59.158Z,102140.81
2018-12-27T01:20:30.549Z,102143.83
2018-12-27T01:23:01.751Z,102145.98
2018-12-27T01:25:33.178Z,102145.13
2018-12-27T01:28:04.255Z,102140.84
2018-12-27T01:30:35.728Z,102142.13
2018-12-27T01:33:06.841Z,102138.29
2018-12-27T01:35:38.221Z,102141.29
2018-12-27T01:38:09.661Z,102142.98
2018-12-27T01:40:40.827Z,102142.97
2018-12-27T01:43:15.574Z,102139.12
2018-12-27T01:45:46.708Z,102145.12
2018-12-27T01:48:17.813Z,102142.98
2018-12-27T01:50:48.935Z,102141.69
2018-12-27T01:53:20.032Z,102125.84
2018-12-27T01:55:51.181Z,102123.70
2018-12-27T01:58:22.284Z,102130.12
2018-12-27T02:00:53.478Z,102128.39
2018-12-27T02:03:26.578Z,102120.25
2018-12-27T02:05:57.517Z,102126.24
2018-12-27T02:08:28.673Z,102118.53
2018-12-27T02:10:59.839Z,102118.13
2018-12-27T02:13:32.085Z,102124.96
2018-12-27T02:16:03.516Z,102117.70
2018-12-27T02:18:34.621Z,102115.95
2018-12-27T02:21:05.778Z,102121.52
2018-12-27T02:23:37.169Z,102111.25
2018-12-27T02:26:08.310Z,102105.24
2018-12-27T02:28:39.511Z,102096.27
2018-12-27T02:31:10.877Z,102094.11
2018-12-27T02:33:42.024Z,102091.10
2018-12-27T02:36:13.125Z,102094.95
2018-12-27T02:38:48.834Z,102091.91
2018-12-27T02:41:20.219Z,102090.63
2018-12-27T02:43:51.324Z,102089.31
2018-12-27T02:46:22.424Z,102089.81
2018-12-27T02:48:53.531Z,102091.07
2018-12-27T02:51:24.644Z,102088.47
2018-12-27T02:53:55.748Z,102095.68
2018-12-27T02:56:27.175Z,102090.99
2018-12-27T02:58:58.312Z,102089.71
2018-12-27T03:01:29.702Z,102086.27
2018-12-27T03:04:01.134Z,102089.27
2018-12-27T03:06:32.253Z,102091.34
2018-12-27T03:09:04.284Z,102089.56
2018-12-27T03:11:35.378Z,102083.98
2018-12-27T03:14:06.565Z,102089.09
2018-12-27T03:16:37.711Z,102082.62
2018-12-27T03:19:09.114Z,102080.45
2018-12-27T03:21:40.259Z,102076.61
2018-12-27T03:24:11.347Z,102078.31
2018-12-27T03:26:42.429Z,102077.87
2018-12-27T03:29:13.537Z,102086.33
2018-12-27T03:31:44.622Z,102076.88
2018-12-27T03:34:15.811Z,102075.16
2018-12-27T03:36:47.182Z,102075.16
2018-12-27T03:39:18.288Z,102074.27
2018-12-27T03:41:49.672Z,102069.52
2018-12-27T03:44:21.106Z,102072.03
2018-12-27T03:46:52.213Z,102066.84
2018-12-27T03:49:23.631Z,102064.28
2018-12-27T03:51:54.810Z,102060.81
2018-12-27T03:54:25.969Z,102061.63
2018-12-27T03:56:57.447Z,102058.21
2018-12-27T03:59:28.550Z,102056.11
2018-12-27T04:01:59.694Z,102059.45
2018-12-27T04:04:30.855Z,102066.77
2018-12-27T04:07:01.995Z,102064.40
2018-12-27T04:09:33.263Z,102059.41
2018-12-27T04:12:04.427Z,102047.05
2018-12-27T04:14:35.846Z,102038.97
2018-12-27T04:17:07.023Z,102044.63
2018-12-27T04:19:37.922Z,102042.11
2018-12-27T04:22:09.326Z,102039.99
2018-12-27T04:24:40.703Z,102041.32
2018-12-27T04:27:11.989Z,102041.77
2018-12-27T04:29:42.892Z,102036.67
2018-12-27T04:32:14.104Z,102029.82
2018-12-27T04:34:45.164Z,102028.98
2018-12-27T04:37:16.029Z,102032.83
2018-12-27T04:39:47.253Z,102030.30
2018-12-27T04:42:19.063Z,102017.03
2018-12-27T04:44:50.129Z,102018.75
2018-12-27T04:47:21.075Z,102017.90
2018-12-27T04:49:51.954Z,102012.79
2018-12-27T04:52:23.551Z,102017.95
2018-12-27T04:54:54.439Z,102017.92
2018-12-27T04:57:25.336Z,102022.64
2018-12-27T04:59:56.243Z,102020.48
2018-12-27T05:02:27.165Z,102020.49
2018-12-27T05:04:58.120Z,102011.95
2018-12-27T05:07:29.001Z,102019.21
2018-12-27T05:09:59.913Z,102024.36
2018-12-27T05:12:30.837Z,102025.64
2018-12-27T05:15:01.757Z,102016.66
2018-12-27T05:17:33.033Z,102018.78
2018-12-27T05:20:03.898Z,102015.78
2018-12-27T05:22:35.081Z,102014.10
2018-12-27T05:25:06.400Z,102014.09
2018-12-27T05:27:37.589Z,102019.67
2018-12-27T05:30:08.507Z,102017.08
2018-12-27T05:32:39.398Z,102013.64
2018-12-27T05:35:10.326Z,102013.22
2018-12-27T05:37:41.639Z,102010.67
2018-12-27T05:40:12.587Z,102015.36
2018-12-27T05:42:43.541Z,102016.23
2018-12-27T05:45:14.539Z,102016.64
2018-12-27T05:47:45.414Z,102013.66
2018-12-27T05:50:16.329Z,102020.95
2018-12-27T05:52:47.301Z,102023.08
2018-12-27T05:55:18.263Z,102016.66
2018-12-27T05:57:49.160Z,102021.80
2018-12-27T06:00:20.124Z,102017.96
2018-12-27T06:02:51.049Z,102015.80
2018-12-27T06:05:21.926Z,102015.39
2018-12-27T06:07:53.516Z,102010.66
2018-12-27T06:10:24.471Z,102004.26
2018-12-27T06:12:55.354Z,102006.81
2018-12-27T06:15:26.352Z,102011.95
2018-12-27T06:17:57.393Z,102013.67
2018-12-27T06:20:28.311Z,102012.39
2018-12-27T06:22:59.184Z,102020.52
2018-12-27T06:25:30.069Z,102024.38
2018-12-27T06:28:00.958Z,102025.21
2018-12-27T06:30:31.839Z,102034.20
2018-12-27T06:33:02.786Z,102023.95
2018-12-27T06:35:34.212Z,102031.64
2018-12-27T06:38:05.121Z,102035.09
2018-12-27T06:40:36.022Z,102036.34
2018-12-27T06:43:07.206Z,102045.33
2018-12-27T06:45:38.109Z,102046.63
2018-12-27T06:48:09.002Z,102046.20
2018-12-27T06:50:39.920Z,102040.63
2018-12-27T06:53:10.791Z,102041.49
2018-12-27T06:55:42.333Z,102048.77
2018-12-27T06:58:13.260Z,102047.91
2018-12-27T07:00:44.149Z,102047.48
2018-12-27T07:03:15.138Z,102053.91
2018-12-27T07:05:46.087Z,102048.78
2018-12-27T07:08:17.029Z,102047.91
2018-12-27T07:10:48.202Z,102043.21
2018-12-27T07:13:19.357Z,102050.89
2018-12-27T07:15:50.248Z,102047.91
2018-12-27T07:18:21.166Z,102052.19
2018-12-27T07:20:52.107Z,102053.91
2018-12-27T07:23:24.390Z,102052.59
2018-12-27T07:25:55.273Z,102051.75
2018-12-27T07:28:26.552Z,102046.64
2018-12-27T07:30:57.417Z,102050.05
2018-12-27T07:33:28.376Z,102044.91
2018-12-27T07:35:59.581Z,102054.33
2018-12-27T07:38:30.764Z,102050.91
2018-12-27T07:41:01.803Z,102050.50
2018-12-27T07:43:32.740Z,102045.34
2018-12-27T07:46:10.712Z,102055.19
2018-12-27T07:48:36.539Z,102060.32
2018-12-27T07:51:07.550Z,102054.30
2018-12-27T07:53:38.466Z,102051.77
2018-12-27T07:56:09.417Z,102056.45
2018-12-27T07:58:40.327Z,102053.04
2018-12-27T08:01:11.206Z,102053.91
2018-12-27T08:03:42.144Z,102053.03
2018-12-27T08:06:13.300Z,102044.49
2018-12-27T08:08:44.172Z,102039.77
2018-12-27T08:11:15.083Z,102036.78
2018-12-27T08:13:45.976Z,102049.20
2018-12-27T08:16:16.904Z,102033.77
2018-12-27T08:18:47.807Z,102033.35
2018-12-27T08:21:18.690Z,102029.50
2018-12-27T08:23:49.615Z,102027.38
2018-12-27T08:26:20.493Z,102027.78
2018-12-27T08:28:51.445Z,102027.38
2018-12-27T08:31:22.313Z,102023.50
2018-12-27T08:33:53.310Z,102026.09
2018-12-27T08:36:24.513Z,102020.48
2018-12-27T08:38:55.393Z,102014.05
2018-12-27T08:41:26.432Z,102023.92
2018-12-27T08:43:57.390Z,102019.19
2018-12-27T08:46:28.256Z,102019.21
2018-12-27T08:48:59.176Z,102013.19
2018-12-27T08:51:30.100Z,102017.05
2018-12-27T08:54:01.306Z,102017.91
2018-12-27T08:56:32.414Z,102014.92
2018-12-27T08:59:03.303Z,102023.86
2018-12-27T09:01:34.220Z,102025.60
2018-12-27T09:04:05.243Z,102026.91
2018-12-27T09:06:36.155Z,102029.45
2018-12-27T09:09:09.538Z,102032.90
2018-12-27T09:11:40.408Z,102020.00
2018-12-27T09:14:11.281Z,102012.72
2018-12-27T09:16:42.205Z,102023.05
2018-12-27T09:19:13.202Z,102020.08
2018-12-27T09:21:44.390Z,102017.05
2018-12-27T09:24:15.615Z,102017.89
2018-12-27T09:26:46.496Z,102020.46
2018-12-27T09:29:17.369Z,102016.98
2018-12-27T09:31:48.284Z,102014.41
2018-12-27T09:34:19.453Z,102016.59
2018-12-27T09:36:50.475Z,102015.68
2018-12-27T09:39:21.448Z,102015.26
2018-12-27T09:41:52.321Z,102014.80
2018-12-27T09:44:23.492Z,102012.65
2018-12-27T09:46:54.495Z,102008.36
2018-12-27T09:49:25.373Z,102010.06
2018-12-27T09:52:01.997Z,102006.66
2018-12-27T09:54:28.982Z,102002.34
2018-12-27T09:56:59.870Z,102012.55
2018-12-27T09:59:31.031Z,102007.38
2018-12-27T10:02:01.967Z,102001.78
2018-12-27T10:04:33.163Z,101994.03
2018-12-27T10:07:04.125Z,101998.80
2018-12-27T10:09:35.041Z,101991.05
2018-12-27T10:12:05.920Z,102002.63
2018-12-27T10:14:36.843Z,101992.27
2018-12-27T10:17:07.827Z,101983.13
2018-12-27T10:19:38.744Z,101980.58
2018-12-27T10:22:09.948Z,101973.56
2018-12-27T10:24:41.004Z,101973.94
2018-12-27T10:27:11.941Z,101964.48
2018-12-27T10:29:43.097Z,101958.67
2018-12-27T10:32:14.035Z,101961.03
2018-12-27T10:34:44.937Z,101965.48
2018-12-27T10:37:16.154Z,101962.53
2018-12-27T10:39:47.112Z,101959.13
2018-12-27T10:42:18.046Z,101964.33
2018-12-27T10:44:48.918Z,101968.64
2018-12-27T10:47:19.844Z,101967.80
2018-12-27T10:49:51.002Z,101970.02
2018-12-27T10:52:21.869Z,101969.94
2018-12-27T10:54:52.777Z,101963.45
2018-12-27T10:57:23.642Z,101959.72
2018-12-27T10:59:54.548Z,101960.15
2018-12-27T11:02:25.501Z,101961.38
2018-12-27T11:04:57.502Z,101953.17
2018-12-27T11:07:28.503Z,101947.09
2018-12-27T11:09:59.376Z,101946.77
2018-12-27T11:12:30.610Z,101943.33
2018-12-27T11:15:01.549Z,101940.24
2018-12-27T11:17:32.770Z,101935.13
2018-12-27T11:20:03.685Z,101930.36
2018-12-27T11:22:34.665Z,101927.62
2018-12-27T11:25:05.761Z,101923.75
2018-12-27T11:27:36.629Z,101920.69
2018-12-27T11:30:08.269Z,101908.77
2018-12-27T11:32:39.212Z,101907.11
2018-12-27T11:35:10.165Z,101906.15
2018-12-27T11:37:41.076Z,101906.59
2018-12-27T11:40:11.964Z,101904.47
2018-12-27T11:42:42.922Z,101901.55
2018-12-27T11:45:13.859Z,101896.02
2018-12-27T11:47:44.819Z,101895.53
2018-12-27T11:50:15.706Z,101895.02
2018-12-27T11:52:46.578Z,101883.80
2018-12-27T11:55:17.478Z,101877.84
2018-12-27T11:57:48.347Z,101882.03
2018-12-27T12:00:19.285Z,101883.34
2018-12-27T12:02:50.145Z,101885.89
2018-12-27T12:05:21.187Z,101881.51
2018-12-27T12:07:52.050Z,101887.95
2018-12-27T12:10:22.932Z,101887.00
2018-12-27T12:12:53.838Z,101882.33
2018-12-27T12:15:25.044Z,101875.14
2018-12-27T12:17:56.055Z,101880.34
2018-12-27T12:20:27.242Z,101878.98
2018-12-27T12:22:58.173Z,101886.86
2018-12-27T12:25:29.094Z,101884.63
2018-12-27T12:28:00.866Z,101890.30
2018-12-27T12:30:31.893Z,101890.80
2018-12-27T12:33:03.066Z,101894.66
2018-12-27T12:35:33.964Z,101886.00
2018-12-27T12:38:05.455Z,101887.15
2018-12-27T12:40:39.405Z,101889.77
2018-12-27T12:43:10.326Z,101895.28
2018-12-27T12:45:41.196Z,101897.84
2018-12-27T12:48:12.080Z,101897.41
2018-12-27T12:50:43.288Z,101894.92
2018-12-27T12:53:14.454Z,101903.09
2018-12-27T12:55:45.655Z,101895.84
2018-12-27T12:58:16.852Z,101901.73
2018-12-27T13:00:48.056Z,101907.81
2018-12-27T13:03:18.991Z,101907.48
2018-12-27T13:05:49.866Z,101911.41
2018-12-27T13:08:20.631Z,101914.27
2018-12-27T13:10:51.510Z,101915.55
2018-12-27T13:13:22.469Z,101920.84
2018-12-27T13:15:53.795Z,101917.78
2018-12-27T13:18:24.951Z,101920.90
2018-12-27T13:20:55.870Z,101916.36
2018-12-27T13:23:26.756Z,101915.98
2018-12-27T13:25:57.750Z,101910.23
2018-12-27T13:28:29.050Z,101911.49
2018-12-27T13:30:59.988Z,101912.31
2018-12-27T13:33:30.904Z,101913.55
2018-12-27T13:36:01.770Z,101913.20
2018-12-27T13:38:32.991Z,101908.94
2018-12-27T13:41:04.162Z,101906.81
2018-12-27T13:43:35.073Z,101904.70
2018-12-27T13:46:06.384Z,101901.75
2018-12-27T13:48:37.310Z,101911.34
2018-12-27T13:51:08.209Z,101912.55
2018-12-27T13:53:39.097Z,101914.77
2018-12-27T13:56:09.978Z,101912.61
2018-12-27T13:58:40.929Z,101910.84
2018-12-27T14:01:12.080Z,101909.62
2018-12-27T14:03:42.965Z,101908.84
2018-12-27T14:06:13.949Z,101904.53
2018-12-27T14:08:45.128Z,101903.84
2018-12-27T14:11:16.319Z,101905.58
2018-12-27T14:13:47.226Z,101900.84
2018-12-27T14:16:18.153Z,101898.59
2018-12-27T14:18:49.031Z,101899.96
2018-12-27T14:21:19.925Z,101900.84
2018-12-27T14:23:50.854Z,101896.57
2018-12-27T14:26:22.096Z,101892.22
2018-12-27T14:28:53.296Z,101888.82
2018-12-27T14:31:24.183Z,101891.46
2018-12-27T14:33:55.474Z,101888.02
2018-12-27T14:36:26.381Z,101893.63
2018-12-27T14:38:57.549Z,101893.20
2018-12-27T14:41:28.526Z,101889.44
2018-12-27T14:44:01.477Z,101891.99
2018-12-27T14:46:32.408Z,101895.45
2018-12-27T14:49:03.373Z,101898.43
2018-12-27T14:51:34.807Z,101895.05
2018-12-27T14:54:05.810Z,101891.16
2018-12-27T14:56:36.704Z,101886.00
2018-12-27T14:59:07.743Z,101890.22
2018-12-27T15:01:38.836Z,101895.52
2018-12-27T15:04:09.719Z,101896.79
2018-12-27T15:06:46.928Z,101896.39
2018-12-27T15:09:13.281Z,101903.19
2018-12-27T15:11:44.219Z,101897.34
2018-12-27T15:14:15.132Z,101900.65
2018-12-27T15:16:46.033Z,101893.30
2018-12-27T15:19:16.993Z,101893.83
2018-12-27T15:21:48.235Z,101903.67
2018-12-27T15:24:19.167Z,101894.70
2018-12-27T15:26:50.197Z,101892.55
2018-12-27T15:29:21.183Z,101895.52
2018-12-27T15:31:52.097Z,101891.64
2018-12-27T15:34:23.047Z,101899.88
2018-12-27T15:36:54.435Z,101899.42
2018-12-27T15:39:25.970Z,101893.06
2018-12-27T15:41:57.221Z,101890.38
2018-12-27T15:44:28.189Z,101888.66
2018-12-27T15:46:59.106Z,101895.53
2018-12-27T15:49:30.075Z,101895.48
2018-12-27T15:52:01.307Z,101895.48
2018-12-27T15:54:32.311Z,101893.83
2018-12-27T15:57:03.181Z,101898.06
2018-12-27T15:59:34.077Z,101903.72
2018-12-27T16:02:05.054Z,101896.39
2018-12-27T16:04:35.968Z,101894.23
2018-12-27T16:07:06.913Z,101895.58
2018-12-27T16:09:37.849Z,101893.80
2018-12-27T16:12:08.835Z,101887.41
2018-12-27T16:14:40.127Z,101889.51
2018-12-27T16:17:11.101Z,101887.05
2018-12-27T16:19:42.048Z,101876.75
2018-12-27T16:22:12.987Z,101878.89
2018-12-27T16:24:44.005Z,101876.69
2018-12-27T16:27:15.064Z,101878.48
2018-12-27T16:29:46.077Z,101875.89
2018-12-27T16:32:17.840Z,101877.63
2018-12-27T16:34:48.909Z,101883.64
2018-12-27T16:37:19.830Z,101878.47
2018-12-27T16:39:50.797Z,101887.16
2018-12-27T16:42:22.218Z,101888.02
2018-12-27T16:44:53.199Z,101887.11
2018-12-27T16:47:24.149Z,101887.52
2018-12-27T16:49:55.106Z,101889.77
2018-12-27T16:52:26.161Z,101888.89
2018-12-27T16:54:57.083Z,101882.82
2018-12-27T16:57:28.342Z,101883.42
2018-12-27T16:59:59.629Z,101885.16
2018-12-27T17:02:30.593Z,101888.16
2018-12-27T17:05:01.509Z,101884.63
2018-12-27T17:07:32.547Z,101882.85
2018-12-27T17:10:03.542Z,101884.17
2018-12-27T17:12:34.590Z,101881.22
2018-12-27T17:15:05.745Z,101880.76
2018-12-27T17:17:36.658Z,101876.39
2018-12-27T17:20:08.234Z,101877.30
2018-12-27T17:22:39.177Z,101871.28
2018-12-27T17:25:10.107Z,101870.45
2018-12-27T17:27:41.036Z,101873.94
2018-12-27T17:30:12.187Z,101876.05
2018-12-27T17:32:43.126Z,101879.09
2018-12-27T17:35:14.089Z,101873.11
2018-12-27T17:37:45.094Z,101876.58
2018-12-27T17:40:15.989Z,101869.29
2018-12-27T17:42:47.366Z,101867.16
2018-12-27T17:45:18.435Z,101867.51
2018-12-27T17:47:49.686Z,101861.14
2018-12-27T17:50:20.700Z,101859.85
2018-12-27T17:52:51.577Z,101867.98
2018-12-27T17:55:22.915Z,101877.98
2018-12-27T17:57:53.835Z,101876.72
2018-12-27T18:00:24.831Z,101869.39
2018-12-27T18:02:55.777Z,101863.71
2018-12-27T18:05:26.690Z,101865.47
2018-12-27T18:07:57.901Z,101868.89
2018-12-27T18:10:29.234Z,101864.63
2018-12-27T18:13:00.177Z,101868.14
2018-12-27T18:15:31.165Z,101871.97
2018-12-27T18:18:02.305Z,101868.14
2018-12-27T18:20:33.276Z,101877.08
2018-12-27T18:23:04.330Z,101877.06
2018-12-27T18:25:35.333Z,101876.64
2018-12-27T18:28:06.265Z,101871.13
2018-12-27T18:30:37.193Z,101871.50
2018-12-27T18:33:08.226Z,101871.84
2018-12-27T18:35:39.133Z,101867.67
2018-12-27T18:38:10.087Z,101866.80
2018-12-27T18:40:41.068Z,101870.31
2018-12-27T18:43:12.329Z,101863.83
2018-12-27T18:45:43.276Z,101856.14
2018-12-27T18:48:14.213Z,101866.47
2018-12-27T18:50:45.423Z,101862.17
2018-12-27T18:53:16.421Z,101861.73
2018-12-27T18:55:47.306Z,101865.50
2018-12-27T18:58:18.411Z,101868.09
2018-12-27T19:00:49.471Z,101869.38
2018-12-27T19:03:20.503Z,101868.93
2018-12-27T19:05:51.511Z,101863.28
2018-12-27T19:08:22.398Z,101851.27
2018-12-27T19:11:46.853Z,101858.98
2018-12-27T19:14:17.785Z,101858.96
2018-12-27T19:16:48.795Z,101865.89
2018-12-27T19:19:19.725Z,101858.09
2018-12-27T19:22:04.521Z,101857.28
2018-12-27T19:24:35.446Z,101864.21
2018-12-27T19:27:06.369Z,101857.35
2018-12-27T19:29:37.399Z,101864.28
2018-12-27T19:32:08.312Z,101859.95
2018-12-27T19:34:39.525Z,101859.50
2018-12-27T19:37:10.839Z,101853.92
2018-12-27T19:39:42.548Z,101856.90
2018-12-27T19:42:14.102Z,101850.91
2018-12-27T19:44:45.523Z,101859.47
2018-12-27T19:47:17.370Z,101847.80
2018-12-27T19:49:49.122Z,101852.55
2018-12-27T19:52:21.167Z,101862.89
2018-12-27T19:54:53.345Z,101861.55
2018-12-27T19:57:25.315Z,101851.72
2018-12-27T19:59:57.197Z,101861.27
2018-12-27T20:02:30.681Z,101863.28
2018-12-27T20:05:03.286Z,101863.31
2018-12-27T20:07:35.642Z,101867.19
2018-12-27T20:10:07.691Z,101862.91
2018-12-27T20:12:40.274Z,101870.23
2018-12-27T20:15:12.183Z,101865.95
2018-12-27T20:17:45.019Z,101868.14
2018-12-27T20:20:17.703Z,101870.23
2018-12-27T20:22:49.952Z,101865.97
2018-12-27T20:25:22.110Z,101872.75
2018-12-27T20:27:54.206Z,101872.31
2018-12-27T20:30:26.104Z,101872.72
2018-12-27T20:32:58.008Z,101877.02
2018-12-27T20:35:30.037Z,101884.68
2018-12-27T20:38:06.615Z,101875.30
2018-12-27T20:40:35.279Z,101874.96
2018-12-27T20:43:07.340Z,101872.39
2018-12-27T20:45:39.115Z,101874.58
2018-12-27T20:48:12.092Z,101882.70
2018-12-27T20:50:44.205Z,101879.23
2018-12-27T20:53:15.954Z,101879.66
2018-12-27T20:55:47.532Z,101876.25
2018-12-27T20:58:19.005Z,101878.38
2018-12-27T21:00:50.465Z,101874.91
2018-12-27T21:03:21.848Z,101877.05
2018-12-27T21:05:53.143Z,101868.88
2018-12-27T21:08:24.590Z,101872.36
2018-12-27T21:10:55.892Z,101870.58
2018-12-27T21:13:26.955Z,101869.27
2018-12-27T21:15:57.970Z,101866.71
2018-12-27T21:18:29.067Z,101871.84
2018-12-27T21:21:00.144Z,101871.02
2018-12-27T21:23:31.171Z,101869.72
2018-12-27T21:26:02.168Z,101879.17
2018-12-27T21:28:33.498Z,101880.03
2018-12-27T21:31:04.506Z,101878.78
2018-12-27T21:33:35.512Z,101876.98
2018-12-27T21:36:06.562Z,101878.34
2018-12-27T21:38:37.747Z,101874.00
2018-12-27T21:41:08.689Z,101872.32
2018-12-27T21:43:39.700Z,101872.73
2018-12-27T21:46:10.989Z,101874.00
2018-12-27T21:48:41.907Z,101863.33
2018-12-27T21:51:12.923Z,101867.11
2018-12-27T21:53:44.259Z,101867.57
2018-12-27T21:56:15.292Z,101860.27
2018-12-27T21:58:46.547Z,101858.08
2018-12-27T22:01:17.633Z,101846.91
2018-12-27T22:03:48.647Z,101847.70
2018-12-27T22:06:20.055Z,101844.36
2018-12-27T22:08:51.314Z,101836.94
2018-12-27T22:11:22.377Z,101837.37
2018-12-27T22:13:53.422Z,101836.51
2018-12-27T22:16:24.310Z,101830.50
2018-12-27T22:18:55.361Z,101820.54
2018-12-27T22:21:26.614Z,101822.30
2018-12-27T22:23:57.626Z,101829.18
2018-12-27T22:26:28.667Z,101827.14
2018-12-27T22:28:59.607Z,101821.94
2018-12-27T22:31:30.651Z,101821.16
2018-12-27T22:34:01.829Z,101825.41
2018-12-27T22:36:32.770Z,101816.47
2018-12-27T22:39:05.254Z,101812.13
2018-12-27T22:41:36.270Z,101798.31
2018-12-27T22:44:07.653Z,101802.63
2018-12-27T22:46:38.582Z,101810.09
2018-12-27T22:49:09.797Z,101817.41
2018-12-27T22:51:40.717Z,101821.27
2018-12-27T22:54:11.678Z,101817.40
2018-12-27T22:56:42.638Z,101813.40
2018-12-27T22:59:13.536Z,101816.88
2018-12-27T23:01:44.498Z,101815.23
2018-12-27T23:04:15.469Z,101817.33
2018-12-27T23:06:46.483Z,101821.66
2018-12-27T23:09:17.471Z,101825.84
2018-12-27T23:11:48.804Z,101822.80
2018-12-27T23:14:19.831Z,101817.20
2018-12-27T23:16:51.161Z,101824.16
2018-12-27T23:19:22.180Z,101815.12
2018-12-27T23:21:53.426Z,101814.72
2018-12-27T23:24:24.373Z,101817.34
2018-12-27T23:26:55.389Z,101819.44
2018-12-27T23:29:26.380Z,101819.08
2018-12-27T23:31:57.367Z,101819.05
2018-12-27T23:34:28.591Z,101810.00
2018-12-27T23:36:59.905Z,101812.63
2018-12-27T23:39:30.848Z,101811.72
2018-12-27T23:42:01.838Z,101814.72
2018-12-27T23:44:32.836Z,101819.00
2018-12-27T23:47:03.820Z,101821.12
2018-12-27T23:49:34.884Z,101821.98
2018-12-27T23:52:05.856Z,101821.95
2018-12-27T23:54:36.829Z,101819.37
2018-12-27T23:57:07.775Z,101821.49
2018-12-27T23:59:38.666Z,101834.02
